createdAt,value
2022-08-09T00:02:08.012Z,5.80
2022-08-09T00:06:18.098Z,5.70
2022-08-09T00:08:32.389Z,4.80
2022-08-09T00:12:04.034Z,5.30
2022-08-09T00:14:47.886Z,4.30
2022-08-09T00:18:05.297Z,5.30
2022-08-09T00:21:08.470Z,5.50
2022-08-09T00:24:04.421Z,8.70
2022-08-09T00:27:04.816Z,6.30
2022-08-09T00:30:23.450Z,4.70
2022-08-09T00:33:18.818Z,6.40
2022-08-09T00:36:30.819Z,4.80
2022-08-09T00:40:14.008Z,4.80
2022-08-09T00:44:11.082Z,4.50
2022-08-09T00:46:10.990Z,4.40
2022-08-09T00:49:11.164Z,4.50
2022-08-09T00:52:17.561Z,4.50
2022-08-09T00:55:16.799Z,5.30
2022-08-09T00:58:31.602Z,5.70
2022-08-09T01:01:32.627Z,4.40
2022-08-09T01:05:14.277Z,4.70
2022-08-09T01:08:48.882Z,4.90
2022-08-09T01:12:05.031Z,5.40
2022-08-09T01:15:10.018Z,5.50
2022-08-09T01:18:14.315Z,6.20
2022-08-09T01:21:20.866Z,5.30
2022-08-09T01:24:25.392Z,5.00
2022-08-09T01:27:21.663Z,4.80
2022-08-09T01:30:28.415Z,5.20
2022-08-09T01:33:33.545Z,3.90
2022-08-09T01:36:34.134Z,4.60
2022-08-09T01:39:31.283Z,4.20
2022-08-09T01:42:31.798Z,4.00
2022-08-09T01:45:29.171Z,4.70
2022-08-09T01:48:24.179Z,4.70
2022-08-09T01:51:27.782Z,4.50
2022-08-09T01:54:34.528Z,5.50
2022-08-09T01:57:30.424Z,4.80
2022-08-09T02:00:36.940Z,3.20
2022-08-09T02:03:34.916Z,5.20
2022-08-09T02:07:02.037Z,6.10
2022-08-09T02:10:05.442Z,4.00
2022-08-09T02:13:12.110Z,4.10
2022-08-09T02:19:06.785Z,5.20
2022-08-09T02:22:08.384Z,4.40
2022-08-09T02:25:09.513Z,4.40
2022-08-09T02:28:18.118Z,4.70
2022-08-09T02:31:18.513Z,5.30
2022-08-09T02:34:41.054Z,5.50
2022-08-09T02:37:36.771Z,4.60
2022-08-09T02:40:33.732Z,4.30
2022-08-09T02:43:31.601Z,3.80
2022-08-09T02:46:52.208Z,5.30
2022-08-09T02:50:01.176Z,4.70
2022-08-09T02:53:04.400Z,4.90
2022-08-09T02:56:03.468Z,4.60
2022-08-09T02:59:00.090Z,4.80
2022-08-09T03:02:06.471Z,5.70
2022-08-09T03:05:05.736Z,4.50
2022-08-09T03:08:09.965Z,5.30
2022-08-09T03:11:10.343Z,6.70
2022-08-09T03:14:09.973Z,4.90
2022-08-09T03:17:08.688Z,5.50
2022-08-09T03:20:16.597Z,6.20
2022-08-09T03:23:24.406Z,5.30
2022-08-09T03:26:22.368Z,7.80
2022-08-09T03:29:35.735Z,5.60
2022-08-09T03:32:50.991Z,5.40
2022-08-09T03:36:12.304Z,5.60
2022-08-09T03:39:10.468Z,5.10
2022-08-09T03:42:07.747Z,6.50
2022-08-09T03:45:08.787Z,6.20
2022-08-09T03:48:06.954Z,5.90
2022-08-09T03:51:03.912Z,6.60
2022-08-09T03:54:04.877Z,6.80
2022-08-09T03:57:17.867Z,4.40
2022-08-09T04:00:23.702Z,6.70
2022-08-09T04:03:35.448Z,6.40
2022-08-09T04:06:49.113Z,5.10
2022-08-09T04:09:54.153Z,6.50
2022-08-09T04:12:57.763Z,8.60
2022-08-09T04:16:19.883Z,5.60
2022-08-09T04:19:30.405Z,5.30
2022-08-09T04:22:37.010Z,6.60
2022-08-09T04:25:40.154Z,6.30
2022-08-09T04:28:46.953Z,6.80
2022-08-09T04:31:47.342Z,5.60
2022-08-09T04:34:54.457Z,7.20
2022-08-09T04:37:55.954Z,5.50
2022-08-09T04:40:56.375Z,6.60
2022-08-09T04:44:06.582Z,5.80
2022-08-09T04:47:10.046Z,6.10
2022-08-09T04:50:09.986Z,6.90
2022-08-09T04:53:17.879Z,7.20
2022-08-09T04:56:26.172Z,7.10
2022-08-09T04:59:24.057Z,7.30
2022-08-09T05:02:29.775Z,5.90
2022-08-09T05:05:51.935Z,8.20
2022-08-09T05:09:00.799Z,7.80
2022-08-09T05:12:03.757Z,7.00
2022-08-09T05:15:38.696Z,7.80
2022-08-09T05:18:58.338Z,7.40
2022-08-09T05:22:33.432Z,8.90
2022-08-09T05:25:34.166Z,6.90
2022-08-09T05:28:36.292Z,7.10
2022-08-09T05:31:49.158Z,6.70
2022-08-09T05:34:58.073Z,6.50
2022-08-09T05:37:59.284Z,8.20
2022-08-09T05:41:04.098Z,7.90
2022-08-09T05:44:04.213Z,6.70
2022-08-09T05:50:50.570Z,5.80
2022-08-09T05:53:57.618Z,8.20
2022-08-09T05:57:03.968Z,6.60
2022-08-09T06:00:17.424Z,6.60
2022-08-09T06:03:20.163Z,7.40
2022-08-09T06:06:23.050Z,7.90
2022-08-09T06:09:54.780Z,8.40
2022-08-09T06:12:52.087Z,6.50
2022-08-09T06:16:01.570Z,7.90
2022-08-09T06:19:14.281Z,7.40
2022-08-09T06:22:15.652Z,7.80
2022-08-09T06:25:17.077Z,6.40
2022-08-09T06:28:27.409Z,7.70
2022-08-09T06:32:08.168Z,8.60
2022-08-09T06:35:02.606Z,7.40
2022-08-09T06:38:15.803Z,7.40
2022-08-09T06:42:07.667Z,6.20
2022-08-09T06:45:00.163Z,8.00
2022-08-09T06:48:30.687Z,7.40
2022-08-09T06:51:40.220Z,6.80
2022-08-09T06:54:47.240Z,7.00
2022-08-09T07:01:09.414Z,10.40
2022-08-09T07:04:24.518Z,6.90
2022-08-09T07:07:59.592Z,8.30
2022-08-09T07:11:03.923Z,7.60
2022-08-09T07:14:12.292Z,5.80
2022-08-09T07:17:39.977Z,7.00
2022-08-09T07:20:57.081Z,5.50
2022-08-09T07:24:00.088Z,7.40
2022-08-09T07:26:59.338Z,6.30
2022-08-09T07:30:14.495Z,8.60
2022-08-09T07:33:23.292Z,6.40
2022-08-09T07:36:39.312Z,5.30
2022-08-09T07:39:48.162Z,7.90
2022-08-09T07:43:14.824Z,6.50
2022-08-09T07:46:27.973Z,5.40
2022-08-09T07:49:52.226Z,5.80
2022-08-09T07:53:02.914Z,6.20
2022-08-09T07:56:26.661Z,7.70
2022-08-09T07:59:46.022Z,5.30
2022-08-09T08:03:04.617Z,6.10
2022-08-09T08:06:09.066Z,5.20
2022-08-09T08:09:38.533Z,5.10
2022-08-09T08:12:50.391Z,5.50
2022-08-09T08:16:01.372Z,5.30
2022-08-09T08:19:10.299Z,5.70
2022-08-09T08:22:28.614Z,6.40
2022-08-09T08:25:40.424Z,5.10
2022-08-09T08:28:57.671Z,4.80
2022-08-09T08:32:14.359Z,5.00
2022-08-09T08:35:53.102Z,5.30
2022-08-09T08:38:57.311Z,6.10
2022-08-09T08:42:06.349Z,5.40
2022-08-09T08:45:37.066Z,4.60
2022-08-09T08:48:51.794Z,5.80
2022-08-09T08:52:01.892Z,4.40
2022-08-09T08:55:23.427Z,4.50
2022-08-09T08:58:33.013Z,5.30
2022-08-09T09:01:57.350Z,5.70
2022-08-09T09:05:10.225Z,5.90
2022-08-09T09:08:29.797Z,4.30
2022-08-09T09:11:39.390Z,6.00
2022-08-09T09:14:45.684Z,5.50
2022-08-09T09:17:53.501Z,4.70
2022-08-09T09:21:09.208Z,6.20
2022-08-09T09:24:21.447Z,5.60
2022-08-09T09:28:05.155Z,5.50
2022-08-09T09:31:02.976Z,5.80
2022-08-09T09:34:29.399Z,6.80
2022-08-09T09:37:41.006Z,4.80
2022-08-09T09:40:50.884Z,5.50
2022-08-09T09:44:25.863Z,4.90
2022-08-09T09:47:50.416Z,4.60
2022-08-09T09:51:11.710Z,6.00
2022-08-09T09:54:48.869Z,5.90
2022-08-09T09:58:17.405Z,6.50
2022-08-09T10:01:31.140Z,4.30
2022-08-09T10:04:48.407Z,4.70
2022-08-09T10:08:27.616Z,4.20
2022-08-09T10:12:00.043Z,4.50
2022-08-09T10:15:17.545Z,4.20
2022-08-09T10:18:29.024Z,3.80
2022-08-09T10:21:41.346Z,4.40
2022-08-09T10:24:57.411Z,5.80
2022-08-09T10:28:09.350Z,4.00
2022-08-09T10:34:45.443Z,3.50
2022-08-09T10:38:00.121Z,3.20
2022-08-09T10:41:08.808Z,5.10
2022-08-09T10:44:17.401Z,4.60
2022-08-09T10:48:19.381Z,3.90
2022-08-09T10:51:40.996Z,4.30
2022-08-09T10:54:42.697Z,4.00
2022-08-09T10:57:51.716Z,3.50
2022-08-09T11:03:02.814Z,5.00
2022-08-09T11:04:32.738Z,5.30
2022-08-09T11:07:56.872Z,4.60
2022-08-09T11:11:08.959Z,4.80
2022-08-09T11:14:44.297Z,4.70
2022-08-09T11:18:02.586Z,4.30
2022-08-09T11:21:14.412Z,3.50
2022-08-09T11:24:18.279Z,4.00
2022-08-09T11:28:03.222Z,3.90
2022-08-09T11:31:12.475Z,4.20
2022-08-09T11:34:57.209Z,5.70
2022-08-09T11:38:32.196Z,6.80
2022-08-09T11:41:37.836Z,5.50
2022-08-09T11:44:57.307Z,6.10
2022-08-09T11:48:25.065Z,8.00
2022-08-09T11:55:53.929Z,6.00
2022-08-09T11:59:15.702Z,4.70
2022-08-09T12:02:40.932Z,7.10
2022-08-09T12:05:48.308Z,6.70
2022-08-09T12:08:55.318Z,4.80
2022-08-09T12:12:20.017Z,5.10
2022-08-09T12:15:48.742Z,4.80
2022-08-09T12:19:06.519Z,6.70
2022-08-09T12:22:23.351Z,4.60
2022-08-09T12:25:50.823Z,4.10
2022-08-09T12:29:33.070Z,5.40
2022-08-09T12:32:36.932Z,2.90
2022-08-09T12:35:50.784Z,3.10
2022-08-09T12:39:04.270Z,2.30
2022-08-09T12:42:17.064Z,5.50
2022-08-09T12:45:38.639Z,3.70
2022-08-09T12:48:43.201Z,3.90
2022-08-09T12:52:03.371Z,5.70
2022-08-09T12:56:14.580Z,5.70
2022-08-09T12:59:09.204Z,4.60
2022-08-09T13:02:16.145Z,4.70
2022-08-09T13:05:52.446Z,5.20
2022-08-09T13:13:09.094Z,5.30
2022-08-09T13:16:27.476Z,5.20
2022-08-09T13:20:10.364Z,7.00
2022-08-09T13:24:15.963Z,5.60
2022-08-09T13:26:55.197Z,4.50
2022-08-09T13:30:48.938Z,5.90
2022-08-09T13:33:52.513Z,6.40
2022-08-09T13:37:07.452Z,4.40
2022-08-09T13:41:45.908Z,6.60
2022-08-09T13:43:42.147Z,4.90
2022-08-09T13:47:29.234Z,4.80
2022-08-09T13:50:30.412Z,5.90
2022-08-09T13:53:42.979Z,6.10
2022-08-09T13:56:54.416Z,5.50
2022-08-09T14:00:02.916Z,4.20
2022-08-09T14:04:03.702Z,5.10
2022-08-09T14:06:46.631Z,4.40
2022-08-09T14:09:57.140Z,4.90
2022-08-09T14:13:21.882Z,5.70
2022-08-09T14:16:36.305Z,5.80
2022-08-09T14:19:48.567Z,4.20
2022-08-09T14:22:54.563Z,6.30
2022-08-09T14:26:01.599Z,4.50
2022-08-09T14:30:34.289Z,4.90
2022-08-09T14:33:01.819Z,4.50
2022-08-09T14:36:25.640Z,4.80
2022-08-09T14:39:47.946Z,5.00
2022-08-09T14:42:58.317Z,3.40
2022-08-09T14:46:54.206Z,4.70
2022-08-09T14:49:23.632Z,3.30
2022-08-09T14:52:28.569Z,4.50
2022-08-09T14:55:33.107Z,5.20
2022-08-09T14:58:50.435Z,5.10
2022-08-09T15:02:01.400Z,6.00
2022-08-09T15:05:17.586Z,5.50
2022-08-09T15:08:25.837Z,5.20
2022-08-09T15:11:48.247Z,6.50
2022-08-09T15:15:00.956Z,4.80
2022-08-09T15:18:14.774Z,4.20
2022-08-09T15:21:58.159Z,5.20
2022-08-09T15:24:41.442Z,5.50
2022-08-09T15:28:00.703Z,5.30
2022-08-09T15:31:18.913Z,4.90
2022-08-09T15:34:33.083Z,4.30
2022-08-09T15:37:57.329Z,5.30
2022-08-09T15:41:09.918Z,4.80
2022-08-09T15:44:15.242Z,4.90
2022-08-09T15:47:31.860Z,5.90
2022-08-09T15:51:02.578Z,6.20
2022-08-09T15:54:33.564Z,7.30
2022-08-09T15:57:59.641Z,4.70
2022-08-09T16:01:11.097Z,7.10
2022-08-09T16:04:20.701Z,5.90
2022-08-09T16:07:39.069Z,5.70
2022-08-09T16:10:56.422Z,5.80
2022-08-09T16:14:06.268Z,7.10
2022-08-09T16:17:17.360Z,9.60
2022-08-09T16:20:27.653Z,5.20
2022-08-09T16:23:32.510Z,8.20
2022-08-09T16:26:34.023Z,7.90
2022-08-09T16:29:37.927Z,12.60
2022-08-09T16:33:16.080Z,10.80
2022-08-09T16:36:19.751Z,9.20
2022-08-09T16:39:26.007Z,8.60
2022-08-09T16:42:35.650Z,14.20
2022-08-09T16:45:44.393Z,10.70
2022-08-09T16:48:53.106Z,8.50
2022-08-09T16:52:09.159Z,8.40
2022-08-09T16:55:18.268Z,6.90
2022-08-09T16:58:27.418Z,8.90
2022-08-09T17:01:39.117Z,6.80
2022-08-09T17:05:02.699Z,6.70
2022-08-09T17:08:44.907Z,5.30
2022-08-09T17:11:48.278Z,5.10
2022-08-09T17:14:58.584Z,6.00
2022-08-09T17:18:16.696Z,5.10
2022-08-09T17:21:32.295Z,4.50
2022-08-09T17:24:47.880Z,5.90
2022-08-09T17:27:57.665Z,4.60
2022-08-09T17:31:04.304Z,4.60
2022-08-09T17:34:59.817Z,6.00
2022-08-09T17:38:14.243Z,5.40
2022-08-09T17:41:16.762Z,4.80
2022-08-09T17:44:38.608Z,6.30
2022-08-09T17:47:49.668Z,7.20
2022-08-09T17:51:10.377Z,6.80
2022-08-09T17:54:28.160Z,5.10
2022-08-09T17:58:03.641Z,4.50
2022-08-09T18:01:03.313Z,5.60
2022-08-09T18:04:14.721Z,5.10
2022-08-09T18:07:22.317Z,8.30
2022-08-09T18:10:38.553Z,4.20
2022-08-09T18:13:58.859Z,7.10
2022-08-09T18:17:18.658Z,6.70
2022-08-09T18:20:56.854Z,6.00
2022-08-09T18:24:10.299Z,4.90
2022-08-09T18:27:59.746Z,5.70
2022-08-09T18:30:49.717Z,5.40
2022-08-09T18:33:58.635Z,6.30
2022-08-09T18:37:47.767Z,6.40
2022-08-09T18:40:51.713Z,6.50
2022-08-09T18:44:13.105Z,6.80
2022-08-09T18:47:27.793Z,7.10
2022-08-09T18:50:51.453Z,7.50
2022-08-09T18:54:10.543Z,7.30
2022-08-09T18:57:43.123Z,6.50
2022-08-09T19:00:51.765Z,6.80
2022-08-09T19:07:10.321Z,6.70
2022-08-09T19:10:22.757Z,7.80
2022-08-09T19:13:38.502Z,8.00
2022-08-09T19:17:04.236Z,7.40
2022-08-09T19:20:34.238Z,7.50
2022-08-09T19:24:39.576Z,6.20
2022-08-09T19:27:14.793Z,6.50
2022-08-09T19:30:32.429Z,7.20
2022-08-09T19:33:36.395Z,7.30
2022-08-09T19:36:43.963Z,9.10
2022-08-09T19:40:04.476Z,7.80
2022-08-09T19:43:58.214Z,10.10
2022-08-09T19:46:51.044Z,9.10
2022-08-09T19:50:08.235Z,11.20
2022-08-09T19:53:37.140Z,9.10
2022-08-09T19:56:56.731Z,10.30
2022-08-09T20:00:06.736Z,15.10
2022-08-09T20:04:08.197Z,11.50
2022-08-09T20:06:36.597Z,12.60
2022-08-09T20:09:45.876Z,12.00
2022-08-09T20:13:03.480Z,13.10
2022-08-09T20:16:33.521Z,11.90
2022-08-09T20:19:48.423Z,12.90
2022-08-09T20:23:07.847Z,11.60
2022-08-09T20:26:17.007Z,19.70
2022-08-09T20:29:21.637Z,15.40
2022-08-09T20:32:39.825Z,13.10
2022-08-09T20:35:51.740Z,11.50
2022-08-09T20:39:27.662Z,12.40
2022-08-09T20:42:46.547Z,12.80
2022-08-09T20:46:33.388Z,11.30
2022-08-09T20:49:35.789Z,10.70
2022-08-09T20:52:40.778Z,10.80
2022-08-09T20:56:01.934Z,14.50
2022-08-09T20:59:12.389Z,12.70
2022-08-09T21:02:22.591Z,12.00
2022-08-09T21:05:57.234Z,10.40
2022-08-09T21:09:11.667Z,10.90
2022-08-09T21:15:56.815Z,13.40
2022-08-09T21:20:17.248Z,12.40
2022-08-09T21:22:38.575Z,11.20
2022-08-09T21:26:01.848Z,10.90
2022-08-09T21:29:13.497Z,11.80
2022-08-09T21:32:35.541Z,9.60
2022-08-09T21:35:40.874Z,9.90
2022-08-09T21:39:04.853Z,9.90
2022-08-09T21:42:10.681Z,11.40
2022-08-09T21:45:17.411Z,11.20
2022-08-09T21:48:23.192Z,10.20
2022-08-09T21:51:36.299Z,11.90
2022-08-09T21:54:46.342Z,12.10
2022-08-09T21:57:58.742Z,13.90
2022-08-09T22:01:00.740Z,11.70
2022-08-09T22:04:02.688Z,12.20
2022-08-09T22:07:12.262Z,12.00
2022-08-09T22:10:22.981Z,8.80
2022-08-09T22:13:22.645Z,9.90
2022-08-09T22:16:24.517Z,7.80
2022-08-09T22:19:59.620Z,9.50
2022-08-09T22:22:50.261Z,10.00
2022-08-09T22:26:06.055Z,11.40
2022-08-09T22:29:17.875Z,11.40
2022-08-09T22:32:29.844Z,9.80
2022-08-09T22:36:03.280Z,8.60
2022-08-09T22:38:55.481Z,10.00
2022-08-09T22:42:00.840Z,8.30
2022-08-09T22:48:13.473Z,8.10
2022-08-09T22:48:35.522Z,9.10
2022-08-09T22:51:39.384Z,8.30
2022-08-09T22:54:42.595Z,8.50
2022-08-09T22:57:59.600Z,8.50
2022-08-09T23:01:00.623Z,8.10
2022-08-09T23:04:03.421Z,8.90
2022-08-09T23:10:44.940Z,7.30
2022-08-09T23:13:49.471Z,8.50
2022-08-09T23:16:47.645Z,9.90
2022-08-09T23:20:06.859Z,7.50
2022-08-09T23:23:11.904Z,7.80
2022-08-09T23:26:15.478Z,6.90
2022-08-09T23:29:16.446Z,7.50
2022-08-09T23:32:15.098Z,8.40
2022-08-09T23:35:14.697Z,7.30
2022-08-09T23:38:18.619Z,7.20
2022-08-09T23:41:27.597Z,6.80
2022-08-09T23:44:26.855Z,7.00
2022-08-09T23:47:27.797Z,7.40
2022-08-09T23:50:25.056Z,6.80
2022-08-09T23:53:22.689Z,6.90
2022-08-09T23:56:52.243Z,7.30
